Lambert Lake, Maine
Current Conditions -  °F | °C
As of 1:53 AM on Sunday 28 Dec 2014 (Local Time) from KHUL Reporting Station
Overcast Overcast  
Wind Chill: 30°   Ceiling: 4000
Heat Index: 34°   Visibility: 10mi
Dew Point: 27°   Wind: 5mph
Humidity: 75%   Direction: 190°S
Pressure: 29.82"   Gusts: NA
Location:  45.55°N, 67.53°W
Report Text: KHUL 280653Z AUTO 19004KT 10SM BKN040 OVC050 01/M03 A2982 RMK AO2 SLP103 T00111028
Loading
Personal Weather Stations






























Interactive Weather Map New forecast layout! Learn more

10-Day Weather Forecast

Advertisements
Track Severe Weather on mobile